createdAt,value
2017-08-27T00:00:14.325Z,17.22
2017-08-27T00:01:13.618Z,17.15
2017-08-27T00:02:13.859Z,17.17
2017-08-27T00:03:13.842Z,17.13
2017-08-27T00:04:13.841Z,17.13
2017-08-27T00:05:13.837Z,17.15
2017-08-27T00:06:13.863Z,17.07
2017-08-27T00:07:13.847Z,17.12
2017-08-27T00:08:13.498Z,17.05
2017-08-27T00:09:14.150Z,17.06
2017-08-27T00:10:13.820Z,17.03
2017-08-27T00:11:13.490Z,17.06
2017-08-27T00:12:13.824Z,17
2017-08-27T00:13:13.483Z,17.09
2017-08-27T00:14:13.485Z,17.02
2017-08-27T00:15:13.823Z,17.07
2017-08-27T00:16:13.504Z,17.13
2017-08-27T00:17:13.808Z,17.06
2017-08-27T00:18:13.801Z,17.07
2017-08-27T00:19:13.464Z,17.1
2017-08-27T00:20:13.473Z,17.05
2017-08-27T00:21:13.786Z,17.02
2017-08-27T00:22:13.784Z,16.95
2017-08-27T00:23:13.780Z,16.97
2017-08-27T00:24:13.776Z,16.88
2017-08-27T00:25:13.468Z,16.85
2017-08-27T00:26:13.466Z,16.81
2017-08-27T00:27:13.461Z,16.84
2017-08-27T00:28:13.801Z,16.77
2017-08-27T00:29:14.132Z,16.73
2017-08-27T00:30:14.097Z,16.76
2017-08-27T00:31:13.455Z,16.7
2017-08-27T00:32:13.442Z,16.82
2017-08-27T00:33:13.425Z,16.87
2017-08-27T00:34:13.419Z,16.82
2017-08-27T00:35:13.744Z,16.73
2017-08-27T00:36:13.742Z,16.82
2017-08-27T00:37:13.738Z,16.77
2017-08-27T00:38:13.740Z,16.77
2017-08-27T00:39:13.402Z,16.74
2017-08-27T00:40:13.733Z,16.74
2017-08-27T00:41:13.723Z,16.67
2017-08-27T00:42:13.718Z,16.67
2017-08-27T00:43:13.721Z,16.69
2017-08-27T00:44:13.386Z,16.52
2017-08-27T00:45:13.383Z,16.62
2017-08-27T00:46:13.714Z,16.69
2017-08-27T00:47:13.705Z,16.59
2017-08-27T00:48:13.703Z,16.62
2017-08-27T00:49:13.371Z,16.54
2017-08-27T00:50:13.368Z,16.48
2017-08-27T00:51:14.056Z,16.49
2017-08-27T00:52:13.689Z,16.48
2017-08-27T00:53:13.682Z,16.49
2017-08-27T00:54:13.702Z,16.42
2017-08-27T00:55:13.680Z,16.45
2017-08-27T00:56:13.348Z,16.4
2017-08-27T00:57:13.684Z,16.36
2017-08-27T00:58:13.341Z,16.32
2017-08-27T00:59:13.994Z,16.34
2017-08-27T01:00:13.661Z,16.34
2017-08-27T01:01:13.331Z,16.33
2017-08-27T01:02:13.655Z,16.32
2017-08-27T01:03:13.326Z,16.27
2017-08-27T01:04:14.177Z,16.34
2017-08-27T01:05:13.640Z,16.26
2017-08-27T01:06:13.658Z,16.36
2017-08-27T01:07:13.962Z,16.21
2017-08-27T01:08:13.320Z,16.29
2017-08-27T01:09:13.629Z,16.26
2017-08-27T01:10:13.625Z,16.29
2017-08-27T01:11:13.617Z,16.26
2017-08-27T01:12:13.289Z,16.3
2017-08-27T01:13:13.614Z,16.21
2017-08-27T01:14:13.623Z,16.29
2017-08-27T01:15:13.278Z,16.25
2017-08-27T01:16:13.303Z,16.25
2017-08-27T01:17:13.270Z,16.25
2017-08-27T01:18:13.613Z,16.18
2017-08-27T01:19:13.265Z,16.14
2017-08-27T01:20:13.589Z,16.21
2017-08-27T01:21:13.258Z,16.14
2017-08-27T01:22:13.947Z,16.14
2017-08-27T01:23:13.901Z,16.16
2017-08-27T01:24:13.246Z,16.08
2017-08-27T01:25:13.243Z,16.06
2017-08-27T01:26:13.238Z,16.04
2017-08-27T01:27:13.562Z,16.02
2017-08-27T01:28:13.233Z,16.04
2017-08-27T01:29:13.240Z,16
2017-08-27T01:30:13.560Z,15.99
2017-08-27T01:31:13.558Z,16.06
2017-08-27T01:32:13.554Z,16.02
2017-08-27T01:33:13.223Z,16.02
2017-08-27T01:34:13.550Z,16.02
2017-08-27T01:35:13.210Z,16
2017-08-27T01:36:13.859Z,15.93
2017-08-27T01:37:13.529Z,15.96
2017-08-27T01:38:13.526Z,15.99
2017-08-27T01:39:13.546Z,15.96
2017-08-27T01:40:13.541Z,15.96
2017-08-27T01:41:13.189Z,15.91
2017-08-27T01:42:13.514Z,15.96
2017-08-27T01:43:13.177Z,15.81
2017-08-27T01:44:13.504Z,15.86
2017-08-27T01:45:13.503Z,15.86
2017-08-27T01:46:13.167Z,15.88
2017-08-27T01:47:13.178Z,15.89
2017-08-27T01:48:13.486Z,15.92
2017-08-27T01:49:13.157Z,15.77
2017-08-27T01:50:13.495Z,15.83
2017-08-27T01:51:13.523Z,15.7
2017-08-27T01:52:13.488Z,15.84
2017-08-27T01:53:13.469Z,15.75
2017-08-27T01:54:13.134Z,15.75
2017-08-27T01:55:13.132Z,15.8
2017-08-27T01:56:13.791Z,15.74
2017-08-27T01:57:13.123Z,15.78
2017-08-27T01:58:13.119Z,15.75
2017-08-27T01:59:13.442Z,15.73
2017-08-27T02:00:13.121Z,15.71
2017-08-27T02:01:13.435Z,15.77
2017-08-27T02:02:13.502Z,15.74
2017-08-27T02:03:13.448Z,15.75
2017-08-27T02:04:13.103Z,15.7
2017-08-27T02:05:13.418Z,15.7
2017-08-27T02:06:13.744Z,15.77
2017-08-27T02:07:13.409Z,15.75
2017-08-27T02:08:13.082Z,15.67
2017-08-27T02:09:13.079Z,15.78
2017-08-27T02:10:13.421Z,15.8
2017-08-27T02:11:13.406Z,15.8
2017-08-27T02:12:13.061Z,15.77
2017-08-27T02:13:13.388Z,15.83
2017-08-27T02:14:13.057Z,15.86
2017-08-27T02:15:13.384Z,15.98
2017-08-27T02:16:13.377Z,15.92
2017-08-27T02:17:13.044Z,16.08
2017-08-27T02:18:13.371Z,16.04
2017-08-27T02:19:13.703Z,16.1
2017-08-27T02:20:13.360Z,16.21
2017-08-27T02:21:13.359Z,16.29
2017-08-27T02:22:13.356Z,16.29
2017-08-27T02:23:13.020Z,16.34
2017-08-27T02:24:13.361Z,16.22
2017-08-27T02:25:13.355Z,16.25
2017-08-27T02:26:13.338Z,16.37
2017-08-27T02:27:13.353Z,16.34
2017-08-27T02:28:13.019Z,16.26
2017-08-27T02:29:13.002Z,16.27
2017-08-27T02:30:13.666Z,16.34
2017-08-27T02:31:13.326Z,16.27
2017-08-27T02:32:13.312Z,16.36
2017-08-27T02:33:13.001Z,16.39
2017-08-27T02:34:12.978Z,16.4
2017-08-27T02:35:13.317Z,16.47
2017-08-27T02:36:13.312Z,16.59
2017-08-27T02:37:13.296Z,16.74
2017-08-27T02:38:13.665Z,16.87
2017-08-27T02:39:12.958Z,17
2017-08-27T02:40:13.285Z,17.03
2017-08-27T02:41:13.283Z,17.09
2017-08-27T02:42:13.296Z,17.15
2017-08-27T02:43:12.973Z,17.22
2017-08-27T02:44:13.278Z,17.28
2017-08-27T02:45:12.939Z,17.22
2017-08-27T02:46:12.935Z,17.21
2017-08-27T02:47:13.257Z,17.27
2017-08-27T02:48:13.265Z,17.25
2017-08-27T02:49:13.268Z,17.15
2017-08-27T02:50:13.263Z,17.18
2017-08-27T02:51:13.245Z,17.09
2017-08-27T02:52:12.925Z,17.02
2017-08-27T02:53:12.922Z,16.99
2017-08-27T02:54:13.245Z,17.03
2017-08-27T02:55:13.253Z,16.88
2017-08-27T02:56:12.900Z,16.92
2017-08-27T02:57:13.222Z,16.82
2017-08-27T02:58:13.549Z,16.82
2017-08-27T02:59:13.219Z,16.77
2017-08-27T03:00:12.886Z,16.85
2017-08-27T03:01:13.225Z,16.88
2017-08-27T03:02:12.881Z,16.87
2017-08-27T03:03:12.893Z,16.94
2017-08-27T03:04:12.873Z,17
2017-08-27T03:05:13.197Z,16.99
2017-08-27T03:06:13.215Z,17.09
2017-08-27T03:07:13.207Z,16.97
2017-08-27T03:08:12.858Z,17.06
2017-08-27T03:09:12.856Z,17.07
2017-08-27T03:10:13.526Z,17.18
2017-08-27T03:11:13.177Z,17.22
2017-08-27T03:12:13.510Z,17.21
2017-08-27T03:13:13.188Z,17.24
2017-08-27T03:14:12.843Z,17.25
2017-08-27T03:15:13.165Z,17.32
2017-08-27T03:16:13.164Z,17.35
2017-08-27T03:17:12.832Z,17.28
2017-08-27T03:18:12.838Z,17.31
2017-08-27T03:19:12.825Z,17.32
2017-08-27T03:20:12.836Z,17.4
2017-08-27T03:21:12.819Z,17.49
2017-08-27T03:22:13.170Z,17.46
2017-08-27T03:23:12.814Z,17.45
2017-08-27T03:24:12.811Z,17.57
2017-08-27T03:25:12.808Z,17.52
2017-08-27T03:26:12.813Z,17.46
2017-08-27T03:27:12.801Z,17.54
2017-08-27T03:28:12.803Z,17.62
2017-08-27T03:29:13.120Z,17.57
2017-08-27T03:30:12.808Z,17.62
2017-08-27T03:31:13.458Z,17.73
2017-08-27T03:32:13.124Z,17.65
2017-08-27T03:33:12.801Z,17.65
2017-08-27T03:34:13.129Z,17.74
2017-08-27T03:35:13.106Z,17.63
2017-08-27T03:36:13.467Z,17.68
2017-08-27T03:37:13.098Z,17.79
2017-08-27T03:38:12.784Z,17.79
2017-08-27T03:39:13.092Z,17.87
2017-08-27T03:40:13.103Z,17.8
2017-08-27T03:41:13.086Z,17.83
2017-08-27T03:42:12.759Z,17.84
2017-08-27T03:43:13.102Z,17.9
2017-08-27T03:44:13.095Z,17.86
2017-08-27T03:45:13.411Z,17.86
2017-08-27T03:46:13.107Z,17.86
2017-08-27T03:47:13.070Z,17.9
2017-08-27T03:48:12.740Z,17.87
2017-08-27T03:49:12.749Z,17.94
2017-08-27T03:50:12.734Z,17.95
2017-08-27T03:51:12.745Z,17.98
2017-08-27T03:52:13.083Z,17.94
2017-08-27T03:53:12.743Z,17.95
2017-08-27T03:54:13.070Z,17.96
2017-08-27T03:55:12.721Z,17.96
2017-08-27T03:56:12.733Z,17.98
2017-08-27T03:57:13.051Z,18.01
2017-08-27T03:58:13.042Z,18.02
2017-08-27T03:59:13.370Z,18.08
2017-08-27T04:00:13.064Z,18.05
2017-08-27T04:01:13.362Z,17.98
2017-08-27T04:02:12.702Z,18.01
2017-08-27T04:03:13.366Z,18.03
2017-08-27T04:04:12.699Z,18.01
2017-08-27T04:05:13.351Z,18.01
2017-08-27T04:06:13.103Z,18.06
2017-08-27T04:07:13.369Z,18.05
2017-08-27T04:08:13.019Z,18.02
2017-08-27T04:09:13.013Z,18.05
2017-08-27T04:10:12.691Z,18.06
2017-08-27T04:11:12.688Z,18.08
2017-08-27T04:12:12.682Z,18.06
2017-08-27T04:13:12.697Z,18.11
2017-08-27T04:14:13.017Z,18.03
2017-08-27T04:15:12.669Z,17.99
2017-08-27T04:16:12.708Z,18.14
2017-08-27T04:17:12.994Z,17.98
2017-08-27T04:18:12.997Z,18.02
2017-08-27T04:19:12.673Z,17.9
2017-08-27T04:20:12.657Z,17.96
2017-08-27T04:21:12.656Z,17.98
2017-08-27T04:22:13.320Z,17.98
2017-08-27T04:23:12.978Z,17.98
2017-08-27T04:24:12.648Z,17.96
2017-08-27T04:25:12.868Z,18.01
2017-08-27T04:26:13.300Z,17.99
2017-08-27T04:27:13.297Z,18.03
2017-08-27T04:28:12.637Z,17.96
2017-08-27T04:29:12.962Z,17.96
2017-08-27T04:30:12.633Z,17.94
2017-08-27T04:31:12.965Z,17.92
2017-08-27T04:32:12.954Z,17.88
2017-08-27T04:33:12.954Z,17.83
2017-08-27T04:34:12.950Z,17.87
2017-08-27T04:35:12.947Z,17.87
2017-08-27T04:36:12.617Z,17.86
2017-08-27T04:37:12.944Z,17.9
2017-08-27T04:38:12.961Z,17.9
2017-08-27T04:39:12.612Z,17.88
2017-08-27T04:40:12.611Z,17.94
2017-08-27T04:41:12.938Z,17.94
2017-08-27T04:42:12.602Z,17.95
2017-08-27T04:43:13.258Z,17.95
2017-08-27T04:44:12.964Z,17.9
